createdAt,value
2023-04-15T00:00:10.389Z,6.90
2023-04-15T00:02:38.830Z,6.40
2023-04-15T00:05:07.645Z,7.40
2023-04-15T00:07:35.590Z,6.60
2023-04-15T00:10:04.501Z,6.93
2023-04-15T00:12:32.502Z,8.23
2023-04-15T00:15:00.497Z,8.63
2023-04-15T00:17:29.776Z,8.90
2023-04-15T00:19:59.934Z,8.93
2023-04-15T00:22:28.336Z,8.47
2023-04-15T00:24:56.526Z,8.37
2023-04-15T00:27:24.461Z,7.93
2023-04-15T00:29:52.755Z,9.13
2023-04-15T00:32:20.865Z,7.53
2023-04-15T00:34:50.916Z,7.93
2023-04-15T00:37:18.825Z,8.20
2023-04-15T00:39:46.753Z,7.53
2023-04-15T00:42:14.817Z,9.43
2023-04-15T00:44:42.845Z,8.00
2023-04-15T00:47:11.928Z,7.20
2023-04-15T00:49:39.854Z,7.43
2023-04-15T00:52:09.290Z,7.60
2023-04-15T00:54:37.641Z,7.60
2023-04-15T00:57:06.972Z,8.00
2023-04-15T00:59:35.393Z,8.20
2023-04-15T01:02:03.482Z,8.83
2023-04-15T01:04:32.088Z,8.27
2023-04-15T01:07:00.131Z,8.47
2023-04-15T01:09:29.528Z,8.57
2023-04-15T01:11:57.882Z,8.50
2023-04-15T01:14:27.222Z,8.80
2023-04-15T01:16:55.221Z,9.60
2023-04-15T01:19:23.430Z,8.80
2023-04-15T01:21:51.993Z,8.17
2023-04-15T01:24:21.348Z,6.87
2023-04-15T01:26:51.228Z,5.97
2023-04-15T01:29:19.485Z,6.37
2023-04-15T01:31:52.341Z,6.33
2023-04-15T01:34:21.052Z,7.13
2023-04-15T01:36:49.577Z,7.70
2023-04-15T01:39:17.889Z,6.93
2023-04-15T01:41:45.904Z,8.43
2023-04-15T01:44:15.301Z,7.20
2023-04-15T01:46:43.184Z,7.90
2023-04-15T01:49:11.290Z,8.53
2023-04-15T01:51:39.204Z,8.57
2023-04-15T01:54:07.105Z,9.30
2023-04-15T01:56:35.064Z,8.70
2023-04-15T01:59:03.851Z,9.43
2023-04-15T02:01:33.283Z,9.53
2023-04-15T02:04:01.471Z,7.70
2023-04-15T02:06:29.632Z,6.57
2023-04-15T02:08:57.552Z,6.27
2023-04-15T02:11:25.533Z,6.33
2023-04-15T02:13:53.480Z,6.87
2023-04-15T02:16:21.885Z,6.80
2023-04-15T02:18:52.141Z,6.80
2023-04-15T02:21:20.180Z,6.13
2023-04-15T02:23:48.593Z,6.90
2023-04-15T02:26:17.017Z,6.07
2023-04-15T02:28:44.937Z,5.63
2023-04-15T02:31:13.008Z,6.63
2023-04-15T02:33:41.117Z,6.40
2023-04-15T02:36:12.462Z,6.47
2023-04-15T02:38:42.497Z,6.83
2023-04-15T02:41:11.347Z,7.13
2023-04-15T02:43:40.083Z,7.33
2023-04-15T02:46:08.196Z,6.03
2023-04-15T02:48:36.171Z,6.03
2023-04-15T02:51:15.604Z,6.33
2023-04-15T02:53:43.917Z,5.63
2023-04-15T02:56:12.634Z,6.40
2023-04-15T02:58:41.952Z,5.90
2023-04-15T03:01:09.944Z,6.00
2023-04-15T03:03:38.118Z,5.20
2023-04-15T03:06:06.712Z,4.90
2023-04-15T03:08:36.502Z,5.47
2023-04-15T03:11:04.975Z,5.90
2023-04-15T03:13:32.918Z,5.10
2023-04-15T03:16:01.095Z,5.23
2023-04-15T03:18:29.408Z,5.23
2023-04-15T03:20:57.374Z,4.80
2023-04-15T03:23:25.429Z,5.50
2023-04-15T03:25:56.021Z,5.20
2023-04-15T03:28:24.032Z,5.67
2023-04-15T03:30:51.967Z,5.60
2023-04-15T03:33:19.947Z,4.80
2023-04-15T03:35:48.042Z,4.67
2023-04-15T03:38:15.973Z,4.30
2023-04-15T03:40:44.202Z,5.10
2023-04-15T03:43:13.602Z,5.20
2023-04-15T03:45:41.630Z,4.70
2023-04-15T03:48:17.335Z,5.43
2023-04-15T03:50:46.519Z,4.80
2023-04-15T03:53:14.452Z,4.97
2023-04-15T03:55:42.453Z,5.30
2023-04-15T03:58:12.953Z,5.10
2023-04-15T04:00:42.605Z,6.07
2023-04-15T04:03:10.737Z,5.40
2023-04-15T04:05:41.551Z,5.60
2023-04-15T04:08:09.553Z,5.77
2023-04-15T04:10:37.567Z,5.73
2023-04-15T04:13:05.548Z,6.00
2023-04-15T04:15:33.540Z,5.67
2023-04-15T04:18:03.206Z,10.50
2023-04-15T04:20:32.130Z,12.27
2023-04-15T04:23:00.349Z,20.47
2023-04-15T04:25:28.325Z,20.40
2023-04-15T04:27:56.441Z,13.33
2023-04-15T04:30:24.498Z,7.73
2023-04-15T04:32:52.615Z,7.03
2023-04-15T04:35:23.344Z,7.93
2023-04-15T04:37:52.495Z,6.73
2023-04-15T04:40:20.796Z,6.77
2023-04-15T04:42:48.908Z,6.57
2023-04-15T04:45:16.814Z,7.17
2023-04-15T04:47:44.770Z,6.43
2023-04-15T04:50:13.150Z,6.87
2023-04-15T13:18:18.462Z,1.48
2023-04-15T13:20:47.905Z,1.00
2023-04-15T13:23:16.473Z,1.38
2023-04-15T13:25:44.558Z,1.30
2023-04-15T13:28:13.013Z,1.65
2023-04-15T13:30:41.530Z,1.27
2023-04-15T13:33:09.531Z,1.20
2023-04-15T13:35:37.530Z,1.00
2023-04-15T13:38:06.876Z,1.10
2023-04-15T13:40:34.906Z,1.50
2023-04-15T13:43:03.458Z,1.77
2023-04-15T13:45:31.561Z,1.42
2023-04-15T13:47:59.823Z,1.55
2023-04-15T13:50:28.632Z,1.20
2023-04-15T13:52:56.910Z,1.50
2023-04-15T13:55:27.925Z,1.58
2023-04-15T13:57:57.594Z,1.15
2023-04-15T14:00:25.550Z,1.30
2023-04-15T14:02:53.616Z,1.50
2023-04-15T14:05:21.695Z,1.20
2023-04-15T14:07:50.355Z,1.10
2023-04-15T14:10:18.652Z,1.20
2023-04-15T14:12:47.919Z,1.35
2023-04-15T14:15:15.876Z,1.20
2023-04-15T14:17:43.933Z,1.55
2023-04-15T14:20:13.237Z,1.20
2023-04-15T14:22:42.933Z,1.30
2023-04-15T14:25:23.091Z,1.15
2023-04-15T14:27:56.430Z,1.70
2023-04-15T14:30:24.614Z,1.42
2023-04-15T14:32:52.811Z,1.20
2023-04-15T14:35:20.951Z,1.27
2023-04-15T14:37:49.322Z,1.20
2023-04-15T14:40:17.439Z,1.33
2023-04-15T14:42:45.398Z,2.10
2023-04-15T14:45:15.296Z,5.50
2023-04-15T14:47:43.368Z,1.50
2023-04-15T14:50:12.047Z,1.60
2023-04-15T14:52:40.117Z,1.45
2023-04-15T14:55:10.362Z,1.75
2023-04-15T14:57:38.877Z,1.98
2023-04-15T15:00:08.606Z,1.42
2023-04-15T15:02:40.437Z,1.30
2023-04-15T15:05:09.612Z,1.30
2023-04-15T15:07:37.860Z,1.60
2023-04-15T15:10:06.738Z,1.75
2023-04-15T15:12:35.255Z,1.50
2023-04-15T15:15:12.173Z,1.60
2023-04-15T15:17:45.969Z,1.65
2023-04-15T15:20:13.931Z,2.47
2023-04-15T15:22:41.904Z,1.77
2023-04-15T15:25:10.128Z,1.50
2023-04-15T15:27:38.549Z,1.50
2023-04-15T15:30:07.628Z,1.60
2023-04-15T15:32:35.960Z,1.73
2023-04-15T15:35:06.617Z,2.03
2023-04-15T15:37:34.626Z,1.70
2023-04-15T15:40:03.614Z,2.00
2023-04-15T15:42:33.608Z,1.67
2023-04-15T15:45:02.149Z,1.70
2023-04-15T15:47:30.517Z,1.90
2023-04-15T15:50:00.287Z,1.73
2023-04-15T15:52:29.811Z,1.40
2023-04-15T15:54:57.729Z,1.60
2023-04-15T15:57:25.789Z,1.70
2023-04-15T16:00:04.855Z,1.60
2023-04-15T16:03:04.425Z,1.70
2023-04-15T16:05:26.461Z,1.40
2023-04-15T16:07:56.017Z,1.73
2023-04-15T16:10:23.908Z,1.20
2023-04-15T16:12:52.258Z,1.10
2023-04-15T16:15:20.545Z,1.87
2023-04-15T16:17:48.489Z,1.80
2023-04-15T16:20:16.832Z,1.57
2023-04-15T16:22:45.002Z,1.70
2023-04-15T16:25:14.755Z,1.77
2023-04-15T16:27:57.284Z,2.60
2023-04-15T16:30:27.303Z,3.60
2023-04-15T16:32:55.566Z,3.50
2023-04-15T16:35:23.502Z,2.03
2023-04-15T16:37:51.586Z,1.80
2023-04-15T16:40:20.976Z,2.83
2023-04-15T16:42:49.020Z,4.57
2023-04-15T16:45:17.596Z,3.40
2023-04-15T16:47:45.858Z,2.80
2023-04-15T16:50:14.035Z,2.97
2023-04-15T16:52:42.032Z,6.13
2023-04-15T16:55:10.432Z,6.60
2023-04-15T16:58:01.140Z,7.00
2023-04-15T17:00:28.153Z,7.13
2023-04-15T17:02:56.796Z,6.60
2023-04-15T17:05:24.962Z,7.40
2023-04-15T17:07:53.087Z,4.53
2023-04-15T17:10:23.697Z,4.90
2023-04-15T17:12:53.090Z,4.20
2023-04-15T17:15:21.719Z,3.63
2023-04-15T17:17:49.816Z,4.07
2023-04-15T17:20:18.565Z,2.70
2023-04-15T17:22:47.087Z,2.70
2023-04-15T17:25:15.423Z,2.37
2023-04-15T17:27:43.538Z,2.87
2023-04-15T17:30:13.497Z,2.43
2023-04-15T17:32:42.909Z,3.00
2023-04-15T17:35:11.714Z,2.83
2023-04-15T17:37:39.927Z,3.17
2023-04-15T17:40:09.139Z,6.43
2023-04-15T17:42:38.058Z,3.40
2023-04-15T17:45:06.954Z,3.63
2023-04-15T17:47:38.648Z,3.50
2023-04-15T17:50:07.922Z,3.20
2023-04-15T17:52:36.228Z,3.87
2023-04-15T17:55:04.607Z,3.50
2023-04-15T17:57:32.748Z,4.03
2023-04-15T18:00:00.783Z,4.07
2023-04-15T18:02:29.178Z,2.90
2023-04-15T18:04:58.954Z,3.33
2023-04-15T18:07:27.223Z,3.00
2023-04-15T18:09:56.554Z,2.77
2023-04-15T18:12:24.668Z,4.77
2023-04-15T18:14:52.817Z,7.87
2023-04-15T18:17:21.489Z,4.43
2023-04-15T18:19:50.761Z,4.63
2023-04-15T18:22:20.422Z,3.47
2023-04-15T18:24:49.889Z,3.23
2023-04-15T18:27:18.381Z,4.43
2023-04-15T18:29:46.633Z,2.83
2023-04-15T18:32:14.945Z,3.67
2023-04-15T18:34:44.017Z,4.33
2023-04-15T18:37:12.547Z,4.97
2023-04-15T18:39:42.380Z,4.83
2023-04-15T18:42:10.425Z,5.50
2023-04-15T18:44:38.498Z,5.03
2023-04-15T18:47:06.542Z,3.40
2023-04-15T18:49:35.133Z,2.90
2023-04-15T18:52:04.171Z,4.60
2023-04-15T18:54:32.363Z,6.47
2023-04-15T18:57:01.875Z,5.27
2023-04-15T18:59:30.862Z,6.93
2023-04-15T19:01:59.766Z,7.97
2023-04-15T19:04:29.457Z,8.20
2023-04-15T19:06:59.278Z,6.77
2023-04-15T19:09:27.604Z,5.90
2023-04-15T19:11:57.033Z,4.87
2023-04-15T19:14:26.680Z,5.27
2023-04-15T19:16:55.115Z,6.23
2023-04-15T19:19:23.387Z,10.00
2023-04-15T19:21:52.091Z,5.53
2023-04-15T19:24:20.904Z,5.77
2023-04-15T19:26:51.143Z,5.60
2023-04-15T19:29:19.452Z,5.90
2023-04-15T19:31:49.372Z,6.17
2023-04-15T19:34:17.812Z,6.43
2023-04-15T19:36:46.820Z,5.57
2023-04-15T19:39:15.544Z,6.30
2023-04-15T19:41:44.486Z,6.20
2023-04-15T19:44:14.109Z,6.67
2023-04-15T19:46:44.909Z,8.03
2023-04-15T19:49:14.833Z,6.87
2023-04-15T19:51:42.915Z,7.30
2023-04-15T19:54:10.908Z,8.17
2023-04-15T19:56:38.902Z,9.67
2023-04-15T19:59:07.908Z,7.27
2023-04-15T20:01:36.328Z,6.83
2023-04-15T20:04:04.813Z,9.00
2023-04-15T20:06:34.538Z,8.40
2023-04-15T20:09:02.737Z,8.87
2023-04-15T20:12:09.680Z,7.97
2023-04-15T20:14:19.108Z,7.07
2023-04-15T20:16:47.805Z,7.33
2023-04-15T20:19:15.969Z,7.60
2023-04-15T20:21:45.478Z,7.37
2023-04-15T20:24:13.479Z,7.43
2023-04-15T20:26:41.576Z,7.47
2023-04-15T20:29:09.527Z,6.80
2023-04-15T20:31:37.692Z,6.97
2023-04-15T20:34:06.077Z,7.00
2023-04-15T20:36:34.025Z,8.30
2023-04-15T20:39:03.529Z,7.67
2023-04-15T20:41:32.276Z,7.70
2023-04-15T20:44:00.234Z,7.13
2023-04-15T20:46:28.259Z,7.10
2023-04-15T20:48:56.917Z,6.00
2023-04-15T20:51:24.837Z,5.40
2023-04-15T20:53:52.954Z,5.70
2023-04-15T20:56:22.406Z,5.80
2023-04-15T20:58:50.450Z,6.17
2023-04-15T21:01:18.553Z,6.00
2023-04-15T21:03:46.789Z,5.93
2023-04-15T21:06:14.921Z,5.73
2023-04-15T21:08:42.940Z,5.43
2023-04-15T21:11:11.667Z,5.17
2023-04-15T21:13:41.100Z,8.70
2023-04-15T21:16:09.519Z,5.63
2023-04-15T21:18:37.692Z,5.87
2023-04-15T21:21:06.218Z,6.10
2023-04-15T21:23:36.885Z,6.00
2023-04-15T21:26:05.016Z,7.73
2023-04-15T21:28:33.356Z,6.27
2023-04-15T21:31:02.803Z,5.33
2023-04-15T21:33:30.880Z,5.30
2023-04-15T21:35:59.036Z,5.43
2023-04-15T21:38:29.426Z,5.07
2023-04-15T21:40:58.094Z,5.00
2023-04-15T21:43:26.219Z,5.07
2023-04-15T21:46:22.953Z,5.23
2023-04-15T21:48:43.955Z,5.47
2023-04-15T21:51:12.132Z,8.57
2023-04-15T21:53:40.084Z,5.30
2023-04-15T21:56:09.272Z,5.53
2023-04-15T21:58:37.866Z,5.43
2023-04-15T22:01:06.356Z,6.13
2023-04-15T22:03:35.737Z,5.47
2023-04-15T22:06:05.508Z,6.00
2023-04-15T22:08:44.619Z,7.07
2023-04-15T22:11:23.160Z,7.27
2023-04-15T22:13:51.159Z,6.63
2023-04-15T22:16:19.176Z,7.87
2023-04-15T22:18:47.188Z,7.50
2023-04-15T22:21:16.796Z,7.53
2023-04-15T22:23:47.374Z,9.00
2023-04-15T22:26:15.589Z,7.30
2023-04-15T22:28:43.667Z,7.20
2023-04-15T22:31:11.714Z,6.80
2023-04-15T22:33:40.071Z,5.93
2023-04-15T22:36:07.981Z,6.17
2023-04-15T22:38:38.742Z,4.07
2023-04-15T22:41:06.752Z,3.80
2023-04-15T22:43:34.763Z,3.57
2023-04-15T22:46:02.940Z,3.73
2023-04-15T22:48:31.136Z,4.40
2023-04-15T22:50:59.078Z,4.37
2023-04-15T22:53:27.267Z,3.80
2023-04-15T22:55:56.527Z,3.50
2023-04-15T22:58:24.907Z,3.90
2023-04-15T23:00:53.212Z,3.10
2023-04-15T23:03:21.577Z,3.33
2023-04-15T23:05:49.778Z,3.33
2023-04-15T23:08:17.635Z,3.30
2023-04-15T23:10:46.650Z,6.40
2023-04-15T23:13:15.971Z,3.90
2023-04-15T23:15:46.553Z,3.43
2023-04-15T23:18:14.702Z,3.83
2023-04-15T23:20:42.645Z,4.03
2023-04-15T23:23:10.673Z,3.80
2023-04-15T23:25:38.663Z,3.70
2023-04-15T23:28:07.237Z,4.73
2023-04-15T23:30:36.574Z,4.53
2023-04-15T23:33:04.699Z,4.10
2023-04-15T23:35:32.896Z,4.20
2023-04-15T23:38:00.961Z,4.80
2023-04-15T23:40:28.958Z,4.90
2023-04-15T23:42:56.913Z,5.37
2023-04-15T23:45:25.024Z,5.40
2023-04-15T23:47:54.511Z,4.90
2023-04-15T23:50:22.526Z,5.20
2023-04-15T23:52:50.548Z,4.20
2023-04-15T23:55:18.485Z,4.80
2023-04-15T23:57:46.568Z,5.73
